Time;durP1;ratioP1;P1;durP2;ratioP2;P2;SDS_P1;SDS_P2;PMS_P1;PMS_P2;Temp;Humidity;BMP_temperature;BMP_pressure;BME280_temperature;BME280_humidity;BME280_pressure;Samples;Min_cycle;Max_cycle;Signal;HPM_P1;HPM_P2
2021/10/16 00:00:16;;;;;;;3.80;3.28;;;11.10;96.70;;;;;;5087148;28;20050;-85
2021/10/16 00:02:44;;;;;;;4.85;3.42;;;11.00;96.70;;;;;;5087863;28;20715;-84
2021/10/16 00:05:12;;;;;;;5.00;3.33;;;11.10;96.70;;;;;;5088547;28;20063;-85
2021/10/16 00:07:40;;;;;;;5.88;4.05;;;11.10;96.70;;;;;;5085181;28;20123;-85
2021/10/16 00:10:08;;;;;;;5.75;4.25;;;11.10;96.70;;;;;;5073196;28;20032;-85
2021/10/16 00:12:38;;;;;;;5.00;4.00;;;11.10;96.70;;;;;;5087637;28;20934;-85
2021/10/16 00:15:07;;;;;;;7.90;3.92;;;11.10;96.70;;;;;;5075747;28;20269;-84
2021/10/16 00:17:35;;;;;;;5.75;3.85;;;11.10;96.70;;;;;;5092263;28;20047;-85
2021/10/16 00:20:04;;;;;;;6.18;4.38;;;11.10;96.70;;;;;;5089768;28;20035;-84
2021/10/16 00:22:32;;;;;;;5.53;4.15;;;11.00;96.70;;;;;;5086639;28;20354;-85
2021/10/16 00:25:00;;;;;;;5.72;4.72;;;11.00;96.70;;;;;;5071465;28;20493;-85
2021/10/16 00:27:28;;;;;;;6.38;4.13;;;11.00;96.70;;;;;;5076390;28;20047;-85
2021/10/16 00:29:58;;;;;;;7.28;3.60;;;11.00;96.70;;;;;;5078641;28;20562;-85
2021/10/16 00:32:26;;;;;;;5.25;3.47;;;11.00;96.70;;;;;;5090234;28;20035;-84
2021/10/16 00:34:53;;;;;;;7.70;4.13;;;10.90;96.70;;;;;;5089112;28;20059;-84
2021/10/16 00:37:24;;;;;;;5.88;3.38;;;10.90;96.70;;;;;;5086820;28;20049;-84
2021/10/16 00:39:54;;;;;;;5.97;3.85;;;10.90;96.70;;;;;;5087027;28;20048;-84
2021/10/16 00:42:22;;;;;;;4.88;3.80;;;10.80;96.70;;;;;;5078194;28;20464;-85
2021/10/16 00:44:51;;;;;;;6.20;4.25;;;10.80;96.70;;;;;;5075087;28;20047;-85
2021/10/16 00:47:21;;;;;;;6.65;3.70;;;10.90;96.70;;;;;;5089441;28;20039;-85
2021/10/16 00:49:49;;;;;;;6.00;3.58;;;10.90;96.70;;;;;;5080272;28;20104;-84
2021/10/16 00:52:17;;;;;;;6.85;3.90;;;10.80;96.70;;;;;;5083067;28;20040;-84
2021/10/16 00:54:45;;;;;;;6.45;3.97;;;10.80;96.70;;;;;;5093991;28;20044;-85
2021/10/16 00:57:13;;;;;;;6.10;4.20;;;10.90;96.70;;;;;;5055378;28;20361;-85
2021/10/16 00:59:41;;;;;;;6.45;3.80;;;10.90;96.70;;;;;;5063888;28;20044;-84
2021/10/16 01:02:18;;;;;;;4.88;3.83;;;10.80;96.70;;;;;;5062678;28;20039;-85
2021/10/16 01:04:49;;;;;;;5.85;3.95;;;10.70;96.70;;;;;;5065568;28;20556;-85
2021/10/16 01:07:19;;;;;;;5.78;3.70;;;10.70;96.70;;;;;;5064690;28;20063;-84
2021/10/16 01:09:47;;;;;;;4.70;3.65;;;10.70;96.70;;;;;;5074168;28;20498;-85
2021/10/16 01:12:17;;;;;;;5.53;3.47;;;10.60;96.70;;;;;;5064595;28;20048;-85
2021/10/16 01:14:49;;;;;;;4.97;3.45;;;10.60;96.70;;;;;;5061212;28;20070;-85
2021/10/16 01:17:18;;;;;;;3.90;3.45;;;10.50;96.70;;;;;;5070643;28;20048;-85
2021/10/16 01:19:49;;;;;;;6.18;3.50;;;10.50;96.70;;;;;;5068032;28;20067;-85
2021/10/16 01:22:18;;;;;;;4.70;3.25;;;10.50;96.70;;;;;;5067904;28;20482;-84
2021/10/16 01:24:48;;;;;;;3.92;3.03;;;10.40;96.70;;;;;;5068642;28;20135;-85
2021/10/16 01:27:17;;;;;;;5.68;3.08;;;10.40;96.70;;;;;;5066567;28;20519;-85
2021/10/16 01:29:46;;;;;;;3.70;3.05;;;10.40;96.70;;;;;;5069163;28;20036;-85
2021/10/16 01:32:14;;;;;;;5.80;3.10;;;10.30;96.70;;;;;;5068025;28;20120;-85
2021/10/16 01:34:43;;;;;;;3.40;2.78;;;10.20;96.70;;;;;;5067240;28;20037;-85
2021/10/16 01:37:11;;;;;;;4.55;2.95;;;10.30;96.70;;;;;;5063735;28;20043;-85
2021/10/16 01:39:43;;;;;;;4.93;3.17;;;10.30;96.70;;;;;;5060835;28;20045;-85
2021/10/16 01:42:13;;;;;;;5.68;3.00;;;10.30;96.70;;;;;;5068968;28;20068;-85
2021/10/16 01:44:47;;;;;;;3.30;2.63;;;10.30;96.70;;;;;;5072832;28;20058;-84
2021/10/16 01:47:15;;;;;;;6.05;3.33;;;10.30;96.70;;;;;;5068071;28;20551;-84
2021/10/16 01:49:43;;;;;;;3.10;2.63;;;10.30;96.70;;;;;;5071742;28;20136;-85
2021/10/16 01:52:14;;;;;;;4.43;3.00;;;10.30;96.70;;;;;;5062222;28;20073;-86
2021/10/16 01:54:46;;;;;;;3.88;2.92;;;10.30;96.70;;;;;;5055998;28;20089;-84
2021/10/16 01:57:15;;;;;;;3.55;2.50;;;10.20;96.70;;;;;;5095693;28;20172;-86
2021/10/16 01:59:54;;;;;;;4.40;2.70;;;10.20;96.70;;;;;;5098024;28;20096;-85
2021/10/16 02:02:35;;;;;;;3.40;2.40;;;10.10;96.70;;;;;;5094431;28;20055;-85
2021/10/16 02:05:22;;;;;;;4.22;2.40;;;10.00;96.70;;;;;;5091867;28;20051;-85
2021/10/16 02:08:19;;;;;;;3.22;2.50;;;9.90;96.70;;;;;;5077106;28;20106;-85
2021/10/16 02:10:49;;;;;;;4.40;2.92;;;9.90;96.70;;;;;;5092637;28;20052;-85
2021/10/16 02:13:17;;;;;;;4.38;2.75;;;9.80;96.70;;;;;;5094742;28;20064;-85
2021/10/16 02:16:14;;;;;;;3.47;2.75;;;9.80;96.70;;;;;;4999865;28;20175;-87
2021/10/16 02:19:05;;;;;;;4.68;2.58;;;9.70;96.70;;;;;;4979859;28;20047;-85
2021/10/16 02:21:35;;;;;;;3.85;2.92;;;9.60;96.70;;;;;;4986573;28;20056;-85
2021/10/16 02:24:05;;;;;;;3.20;2.20;;;9.60;96.70;;;;;;5004910;28;20048;-85
2021/10/16 02:26:43;;;;;;;3.83;2.20;;;9.60;96.70;;;;;;4989505;28;20138;-85
2021/10/16 02:29:17;;;;;;;5.53;2.72;;;9.60;96.70;;;;;;4986409;28;20054;-85
2021/10/16 02:31:56;;;;;;;3.63;2.63;;;9.60;96.70;;;;;;4974972;28;20073;-85
2021/10/16 02:34:25;;;;;;;6.78;2.33;;;9.60;96.70;;;;;;4976984;28;20041;-85
2021/10/16 02:36:57;;;;;;;3.85;2.40;;;9.60;96.70;;;;;;4996110;28;20161;-85
2021/10/16 02:39:26;;;;;;;3.38;2.63;;;9.60;96.70;;;;;;4985602;28;20046;-85
2021/10/16 02:41:57;;;;;;;5.55;2.90;;;9.60;96.70;;;;;;4989254;28;20140;-85
2021/10/16 02:44:28;;;;;;;4.38;3.13;;;9.70;96.70;;;;;;4972678;28;20066;-85
2021/10/16 02:46:57;;;;;;;5.78;3.38;;;9.70;96.70;;;;;;4977941;28;20049;-85
2021/10/16 02:49:26;;;;;;;4.63;3.22;;;9.70;96.70;;;;;;4996743;28;20046;-85
2021/10/16 02:51:54;;;;;;;4.20;2.88;;;9.50;96.70;;;;;;5000748;28;20157;-86
2021/10/16 02:54:22;;;;;;;4.75;3.20;;;9.50;96.70;;;;;;5073685;28;20046;-84
2021/10/16 02:56:52;;;;;;;4.35;3.28;;;9.50;96.70;;;;;;5086370;28;20043;-84
2021/10/16 02:59:21;;;;;;;5.82;3.03;;;9.50;96.70;;;;;;5091399;28;20077;-84
2021/10/16 03:01:54;;;;;;;4.95;3.20;;;9.40;96.70;;;;;;5088410;28;20110;-83
2021/10/16 03:04:28;;;;;;;5.05;3.15;;;9.30;96.70;;;;;;5073024;28;20048;-84
2021/10/16 03:06:57;;;;;;;4.40;3.20;;;9.40;96.70;;;;;;5096092;28;20062;-84
2021/10/16 03:09:27;;;;;;;7.43;2.97;;;9.30;96.70;;;;;;5095746;28;20466;-84
2021/10/16 03:11:55;;;;;;;3.95;2.70;;;9.40;96.70;;;;;;5091846;28;20052;-84
2021/10/16 03:14:24;;;;;;;4.38;3.00;;;9.30;96.70;;;;;;5073241;28;20050;-83
2021/10/16 03:16:53;;;;;;;4.88;2.67;;;9.30;96.70;;;;;;5094117;28;20089;-84
2021/10/16 03:19:24;;;;;;;4.35;3.10;;;9.30;96.70;;;;;;5079124;28;20052;-84
2021/10/16 03:22:01;;;;;;;4.45;2.80;;;9.20;96.70;;;;;;5086147;28;20093;-84
2021/10/16 03:24:33;;;;;;;3.92;2.75;;;9.20;96.70;;;;;;5079308;28;20501;-84
2021/10/16 03:27:02;;;;;;;4.05;2.70;;;9.20;96.70;;;;;;5091024;28;20039;-84
2021/10/16 03:29:32;;;;;;;5.75;3.35;;;9.20;96.70;;;;;;5069689;28;20044;-85
2021/10/16 03:32:00;;;;;;;4.25;2.97;;;9.20;96.70;;;;;;5075821;28;20575;-84
2021/10/16 03:34:29;;;;;;;5.75;3.10;;;9.30;96.70;;;;;;5089041;28;20118;-85
2021/10/16 03:36:58;;;;;;;4.85;2.75;;;9.20;96.70;;;;;;5076750;28;20116;-84
2021/10/16 03:39:27;;;;;;;5.18;2.60;;;9.20;96.70;;;;;;5077254;28;20042;-85
2021/10/16 03:41:56;;;;;;;3.45;2.63;;;9.20;96.70;;;;;;5072609;28;20060;-85
2021/10/16 03:44:24;;;;;;;3.55;2.28;;;9.20;96.70;;;;;;5089024;28;20056;-83
2021/10/16 03:46:56;;;;;;;3.55;2.50;;;9.20;96.70;;;;;;5071774;28;20067;-85
2021/10/16 03:49:24;;;;;;;4.28;2.60;;;9.30;96.70;;;;;;5075568;28;20584;-84
2021/10/16 03:51:52;;;;;;;3.28;2.63;;;9.20;96.70;;;;;;5076825;28;20036;-84
2021/10/16 03:54:19;;;;;;;4.32;2.53;;;9.20;96.70;;;;;;5090657;28;20048;-85
2021/10/16 03:56:50;;;;;;;2.85;2.10;;;9.20;96.70;;;;;;5073102;28;20536;-85
2021/10/16 03:59:21;;;;;;;2.92;2.17;;;9.20;96.70;;;;;;5089464;28;20151;-85
2021/10/16 04:01:50;;;;;;;4.30;2.17;;;9.20;96.70;;;;;;5087822;28;20131;-84
2021/10/16 04:04:19;;;;;;;3.88;2.28;;;9.10;96.70;;;;;;5090740;28;20039;-85
2021/10/16 04:06:47;;;;;;;3.40;2.30;;;9.00;96.70;;;;;;5090779;28;20262;-84
2021/10/16 04:09:15;;;;;;;3.35;2.25;;;9.00;96.70;;;;;;5092020;28;20421;-84
2021/10/16 04:11:44;;;;;;;4.22;2.58;;;9.00;96.70;;;;;;5088000;28;20062;-84
2021/10/16 04:14:12;;;;;;;5.85;2.35;;;8.90;96.70;;;;;;5071238;28;20040;-85
2021/10/16 04:16:40;;;;;;;3.65;2.08;;;8.90;96.70;;;;;;5070860;28;20092;-84
2021/10/16 04:19:08;;;;;;;4.97;2.63;;;8.80;96.70;;;;;;5084854;28;20571;-84
2021/10/16 04:21:37;;;;;;;4.28;2.40;;;8.70;96.70;;;;;;5075293;28;20043;-84
2021/10/16 04:24:06;;;;;;;2.90;2.20;;;8.70;96.70;;;;;;5088234;28;20048;-84
2021/10/16 04:26:34;;;;;;;4.82;2.47;;;8.60;96.70;;;;;;5087990;28;20068;-84
2021/10/16 04:29:03;;;;;;;3.65;2.00;;;8.60;96.70;;;;;;5095425;28;20039;-84
2021/10/16 04:31:53;;;;;;;3.97;2.17;;;8.50;96.70;;;;;;5075812;28;20155;-85
2021/10/16 04:34:22;;;;;;;3.58;2.28;;;8.50;96.70;;;;;;5078857;28;20047;-85
2021/10/16 04:36:52;;;;;;;3.85;2.50;;;8.50;96.70;;;;;;5090152;28;20050;-85
2021/10/16 04:39:20;;;;;;;4.75;2.40;;;8.50;96.70;;;;;;5082913;28;20131;-85
2021/10/16 04:41:48;;;;;;;4.57;2.45;;;8.60;96.70;;;;;;5089368;28;20615;-84
2021/10/16 04:44:16;;;;;;;3.17;2.65;;;8.50;96.70;;;;;;5071408;28;20058;-85
2021/10/16 04:46:44;;;;;;;5.05;2.60;;;8.40;96.70;;;;;;5088757;28;20136;-85
2021/10/16 04:49:12;;;;;;;5.53;2.95;;;8.40;96.70;;;;;;5087176;28;20047;-85
2021/10/16 04:51:42;;;;;;;4.90;3.03;;;8.40;96.70;;;;;;5085024;28;20165;-85
2021/10/16 04:54:16;;;;;;;4.25;2.92;;;8.50;96.70;;;;;;5094488;28;20540;-85
2021/10/16 04:56:45;;;;;;;5.93;3.20;;;8.50;96.70;;;;;;5071123;28;20056;-85
2021/10/16 04:59:13;;;;;;;5.25;3.10;;;8.50;96.70;;;;;;5089048;28;20311;-85
2021/10/16 05:01:42;;;;;;;3.90;2.78;;;8.60;96.70;;;;;;5077924;28;20044;-84
2021/10/16 05:04:10;;;;;;;5.45;2.72;;;8.60;96.70;;;;;;5084814;28;20139;-84
2021/10/16 05:06:39;;;;;;;4.93;3.10;;;8.60;96.70;;;;;;5088358;28;20513;-84
2021/10/16 05:09:07;;;;;;;4.95;2.63;;;8.60;96.70;;;;;;5093733;28;20044;-85
2021/10/16 05:11:40;;;;;;;3.25;2.65;;;8.50;96.70;;;;;;5088259;28;20139;-85
2021/10/16 05:14:09;;;;;;;3.72;2.70;;;8.50;96.70;;;;;;5089682;28;20047;-84
2021/10/16 05:16:37;;;;;;;3.60;2.33;;;8.40;96.70;;;;;;5091883;28;20070;-86
2021/10/16 05:19:05;;;;;;;3.47;2.25;;;8.30;96.70;;;;;;5098987;28;20044;-85
2021/10/16 05:21:34;;;;;;;3.78;2.60;;;8.40;96.70;;;;;;5094364;28;20500;-85
2021/10/16 05:24:03;;;;;;;3.72;2.35;;;8.30;96.70;;;;;;5082120;28;20497;-84
2021/10/16 05:26:31;;;;;;;2.75;2.13;;;8.20;96.70;;;;;;5081779;28;20048;-85
2021/10/16 05:29:03;;;;;;;4.03;2.40;;;8.20;96.70;;;;;;5079355;28;20047;-84
2021/10/16 05:31:32;;;;;;;2.92;2.13;;;8.20;96.70;;;;;;5072892;28;20118;-85
2021/10/16 05:34:01;;;;;;;2.63;2.20;;;8.20;96.70;;;;;;5089949;28;20040;-85
2021/10/16 05:36:28;;;;;;;3.20;2.33;;;8.20;96.70;;;;;;5079550;28;20040;-84
2021/10/16 05:38:57;;;;;;;3.20;2.20;;;8.30;96.70;;;;;;5078217;28;20048;-84
2021/10/16 05:41:25;;;;;;;4.85;2.53;;;8.30;96.70;;;;;;5089771;28;20167;-84
2021/10/16 05:43:53;;;;;;;4.40;2.83;;;8.20;96.70;;;;;;5094663;28;20065;-85
2021/10/16 05:46:24;;;;;;;6.38;4.43;;;8.20;96.70;;;;;;5096509;28;20062;-85
2021/10/16 05:48:53;;;;;;;5.30;3.30;;;8.20;96.70;;;;;;5079767;28;20553;-85
2021/10/16 05:51:21;;;;;;;5.43;2.90;;;8.20;96.70;;;;;;5070668;28;20466;-84
2021/10/16 05:53:49;;;;;;;3.58;2.88;;;8.10;96.70;;;;;;5087526;28;20033;-85
2021/10/16 05:56:18;;;;;;;4.10;2.85;;;8.00;96.70;;;;;;5080391;28;20058;-85
2021/10/16 05:58:46;;;;;;;5.35;3.30;;;8.00;96.70;;;;;;5090646;28;20050;-85
2021/10/16 06:01:15;;;;;;;6.88;2.70;;;8.00;96.70;;;;;;5098661;28;20168;-84
2021/10/16 06:03:52;;;;;;;4.68;2.72;;;8.10;96.70;;;;;;5088402;28;20052;-86
2021/10/16 06:06:20;;;;;;;3.92;2.50;;;8.10;96.70;;;;;;5083576;28;20040;-85
2021/10/16 06:08:48;;;;;;;5.07;3.17;;;8.10;96.70;;;;;;5092940;28;20402;-83
2021/10/16 06:11:16;;;;;;;4.43;2.50;;;8.00;96.70;;;;;;5091270;28;20056;-83
2021/10/16 06:13:44;;;;;;;4.32;2.35;;;8.10;96.70;;;;;;5093138;28;20035;-83
2021/10/16 06:16:12;;;;;;;3.65;2.20;;;8.10;96.70;;;;;;5077514;28;20047;-83
2021/10/16 06:18:45;;;;;;;3.92;1.90;;;8.10;96.70;;;;;;5081149;28;20044;-83
2021/10/16 06:21:16;;;;;;;3.17;1.95;;;8.10;96.70;;;;;;5090660;28;20036;-83
2021/10/16 06:23:46;;;;;;;3.90;2.58;;;8.20;96.70;;;;;;5092440;28;20048;-86
2021/10/16 06:26:24;;;;;;;4.18;2.22;;;8.20;96.70;;;;;;5075565;28;20416;-85
2021/10/16 06:28:52;;;;;;;4.30;2.60;;;8.30;96.70;;;;;;5089431;28;20044;-81
2021/10/16 06:31:20;;;;;;;5.00;2.35;;;8.40;96.70;;;;;;5092667;28;20047;-82
2021/10/16 06:33:48;;;;;;;4.25;2.55;;;8.50;96.70;;;;;;5092395;28;20078;-83
2021/10/16 06:36:18;;;;;;;4.22;2.60;;;8.50;96.70;;;;;;5092013;28;20067;-82
2021/10/16 06:38:49;;;;;;;4.03;2.45;;;8.50;96.70;;;;;;5073681;28;20588;-82
2021/10/16 06:41:18;;;;;;;4.90;2.50;;;8.60;96.70;;;;;;5080446;28;20036;-83
2021/10/16 06:44:06;;;;;;;4.07;2.53;;;8.70;96.70;;;;;;5089289;28;20504;-83
2021/10/16 06:46:51;;;;;;;5.70;2.75;;;8.80;96.70;;;;;;5092818;28;20043;-83
2021/10/16 06:49:25;;;;;;;6.78;2.80;;;8.90;96.70;;;;;;5087418;28;20040;-82
2021/10/16 06:51:56;;;;;;;5.53;2.67;;;9.00;96.70;;;;;;5085694;28;20422;-82
2021/10/16 06:54:24;;;;;;;5.53;2.45;;;9.10;96.70;;;;;;5075793;28;20075;-82
2021/10/16 06:56:53;;;;;;;4.15;2.50;;;9.20;96.70;;;;;;5085993;28;20072;-85
2021/10/16 06:59:21;;;;;;;4.00;2.45;;;9.20;96.70;;;;;;5071100;28;20124;-83
2021/10/16 07:01:50;;;;;;;7.90;3.25;;;9.20;96.70;;;;;;5092283;27;20577;-83
2021/10/16 07:04:27;;;;;;;4.90;2.70;;;9.30;96.70;;;;;;5090526;28;20351;-81
2021/10/16 07:07:00;;;;;;;5.10;2.80;;;9.40;96.70;;;;;;5085518;28;20036;-83
2021/10/16 07:09:39;;;;;;;6.38;3.20;;;9.60;96.70;;;;;;5078130;28;20051;-83
2021/10/16 07:12:09;;;;;;;4.57;2.70;;;9.60;96.70;;;;;;5092487;28;20044;-84
2021/10/16 07:14:37;;;;;;;6.70;2.97;;;9.70;96.70;;;;;;5086498;28;20605;-84
2021/10/16 07:17:08;;;;;;;6.20;2.88;;;9.80;96.70;;;;;;5091222;28;20043;-83
2021/10/16 07:19:36;;;;;;;5.80;3.40;;;9.80;96.70;;;;;;5085809;28;20125;-83
2021/10/16 07:22:05;;;;;;;6.00;2.90;;;9.90;96.70;;;;;;5086522;28;20040;-82
2021/10/16 07:24:33;;;;;;;4.10;2.80;;;10.00;96.70;;;;;;5089509;28;20086;-82
2021/10/16 07:27:01;;;;;;;7.10;3.75;;;10.10;96.70;;;;;;5092791;27;20035;-84
2021/10/16 07:29:29;;;;;;;6.00;3.17;;;10.20;96.70;;;;;;5077181;28;20047;-85
2021/10/16 07:31:57;;;;;;;5.10;3.53;;;10.30;96.70;;;;;;5090690;28;20505;-83
2021/10/16 07:34:25;;;;;;;5.28;3.40;;;10.50;96.70;;;;;;5095547;28;20043;-84
2021/10/16 07:36:53;;;;;;;5.93;3.22;;;10.50;96.70;;;;;;5089197;28;20042;-83
2021/10/16 07:39:22;;;;;;;6.75;4.07;;;10.60;96.70;;;;;;5089216;27;20098;-83
2021/10/16 07:41:50;;;;;;;7.13;3.35;;;10.70;96.70;;;;;;5084981;28;20036;-83
2021/10/16 07:44:18;;;;;;;4.82;3.58;;;10.70;96.70;;;;;;5091066;28;20250;-83
2021/10/16 07:46:46;;;;;;;6.85;4.22;;;10.80;96.70;;;;;;5086423;28;20043;-82
2021/10/16 07:49:14;;;;;;;12.00;4.05;;;11.00;96.70;;;;;;5092004;28;20170;-83
2021/10/16 07:51:43;;;;;;;4.28;3.17;;;11.10;96.70;;;;;;5084606;28;20047;-82
2021/10/16 07:54:10;;;;;;;4.03;2.72;;;11.10;96.70;;;;;;5088600;28;20436;-83
2021/10/16 07:56:40;;;;;;;7.53;3.42;;;11.20;96.70;;;;;;5101621;27;20043;-83
2021/10/16 07:59:08;;;;;;;4.53;3.42;;;11.30;96.70;;;;;;5088970;27;20043;-82
2021/10/16 08:01:36;;;;;;;4.82;3.10;;;11.40;96.70;;;;;;5105600;27;20738;-83
2021/10/16 08:04:04;;;;;;;5.32;3.00;;;11.60;96.70;;;;;;5094248;28;20461;-83
2021/10/16 08:06:32;;;;;;;4.13;3.30;;;11.80;96.70;;;;;;5104803;27;20036;-83
2021/10/16 08:09:00;;;;;;;5.80;2.97;;;11.90;96.70;;;;;;5071520;28;20051;-83
2021/10/16 08:11:52;;;;;;;7.78;3.45;;;12.10;96.70;;;;;;5107929;27;20096;-83
2021/10/16 08:14:20;;;;;;;6.28;3.50;;;12.20;96.70;;;;;;5110020;27;20035;-83
2021/10/16 08:16:48;;;;;;;8.88;3.50;;;12.30;96.70;;;;;;5077597;28;20053;-83
2021/10/16 08:19:16;;;;;;;4.80;3.60;;;12.40;96.70;;;;;;5106709;27;20040;-84
2021/10/16 08:21:45;;;;;;;7.20;3.67;;;12.50;96.70;;;;;;5094506;28;20043;-83
2021/10/16 08:24:13;;;;;;;6.47;4.15;;;12.60;96.70;;;;;;5106944;27;20036;-83
2021/10/16 08:26:41;;;;;;;6.43;4.50;;;12.70;96.70;;;;;;5093444;27;20039;-83
2021/10/16 08:29:10;;;;;;;5.70;4.45;;;12.80;96.70;;;;;;5084415;28;20130;-82
2021/10/16 08:31:38;;;;;;;7.57;5.28;;;12.90;96.70;;;;;;5107298;27;20134;-80
2021/10/16 08:34:06;;;;;;;8.00;5.25;;;13.10;96.70;;;;;;5074267;27;20046;-81
2021/10/16 08:36:34;;;;;;;8.15;5.68;;;13.10;96.70;;;;;;5107493;27;20066;-80
2021/10/16 08:39:02;;;;;;;7.15;5.60;;;13.20;96.70;;;;;;5083893;28;20077;-80
2021/10/16 08:41:31;;;;;;;9.35;6.60;;;13.40;96.70;;;;;;5110233;27;20051;-84
2021/10/16 08:43:59;;;;;;;9.10;6.40;;;13.50;96.70;;;;;;5077113;28;20067;-84
2021/10/16 08:46:29;;;;;;;8.75;5.28;;;13.60;96.70;;;;;;5090674;28;20044;-81
2021/10/16 08:49:02;;;;;;;6.88;5.50;;;13.70;96.70;;;;;;5076570;28;20409;-83
2021/10/16 08:51:30;;;;;;;7.95;5.63;;;13.90;96.70;;;;;;5093079;28;20043;-83
2021/10/16 08:53:58;;;;;;;7.80;5.30;;;14.00;96.70;;;;;;5088561;28;20043;-83
2021/10/16 08:56:26;;;;;;;8.35;6.07;;;14.10;96.70;;;;;;5093231;28;20580;-83
2021/10/16 08:58:54;;;;;;;8.00;5.70;;;14.30;96.70;;;;;;5081306;28;20152;-83
2021/10/16 09:01:22;;;;;;;7.97;5.32;;;14.50;96.70;;;;;;5112158;28;20043;-83
2021/10/16 09:03:52;;;;;;;8.88;5.07;;;14.60;96.70;;;;;;5081533;28;20040;-83
2021/10/16 09:06:24;;;;;;;8.52;5.07;;;14.70;96.70;;;;;;5070093;28;20044;-83
2021/10/16 09:08:54;;;;;;;8.13;5.72;;;14.90;96.70;;;;;;5105796;28;20501;-83
2021/10/16 09:11:27;;;;;;;11.43;5.32;;;15.00;96.70;;;;;;5105698;28;20040;-83
2021/10/16 09:13:59;;;;;;;7.40;5.50;;;15.20;96.70;;;;;;5075142;28;20063;-83
2021/10/16 09:16:29;;;;;;;9.55;5.57;;;15.30;96.70;;;;;;5088941;28;20035;-83
2021/10/16 09:19:02;;;;;;;7.93;5.63;;;15.50;96.70;;;;;;5093320;28;20062;-84
2021/10/16 09:21:32;;;;;;;8.15;5.82;;;15.60;96.70;;;;;;5111679;28;20044;-84
2021/10/16 09:24:10;;;;;;;8.73;6.07;;;15.80;96.70;;;;;;5093862;28;20039;-84
2021/10/16 09:26:40;;;;;;;9.85;4.93;;;16.00;96.70;;;;;;5084696;28;20532;-83
2021/10/16 09:29:10;;;;;;;7.18;5.22;;;16.10;96.70;;;;;;5090037;28;20276;-84
2021/10/16 09:31:41;;;;;;;7.10;5.07;;;16.20;96.70;;;;;;5108339;28;20039;-84
2021/10/16 09:34:10;;;;;;;8.02;5.45;;;16.30;96.70;;;;;;5097316;28;20166;-84
2021/10/16 09:36:40;;;;;;;10.82;5.75;;;16.40;96.70;;;;;;5093328;28;20035;-84
2021/10/16 09:39:15;;;;;;;7.00;5.10;;;16.50;96.70;;;;;;5096087;28;20043;-83
2021/10/16 09:41:44;;;;;;;8.00;5.47;;;16.60;96.70;;;;;;5094234;28;20039;-84
2021/10/16 09:44:26;;;;;;;7.20;4.85;;;16.60;96.70;;;;;;5092665;28;20077;-84
2021/10/16 09:47:15;;;;;;;6.43;4.47;;;16.90;96.70;;;;;;5085741;28;20042;-84
2021/10/16 09:49:46;;;;;;;5.68;4.30;;;17.10;96.70;;;;;;5087307;28;20054;-84
2021/10/16 09:52:15;;;;;;;3.92;2.30;;;17.30;96.70;;;;;;5090309;28;20039;-84
2021/10/16 09:54:45;;;;;;;4.13;2.08;;;17.50;96.70;;;;;;5098722;27;20557;-84
2021/10/16 09:57:16;;;;;;;5.88;2.25;;;17.80;96.00;;;;;;5092825;27;20502;-89
2021/10/16 09:59:43;;;;;;;4.28;2.17;;;17.90;94.60;;;;;;5086884;27;20050;-88
2021/10/16 10:02:12;;;;;;;2.53;1.73;;;18.00;93.70;;;;;;5094468;27;20035;-89
2021/10/16 10:04:42;;;;;;;4.13;1.85;;;18.30;93.30;;;;;;5097186;28;20481;-87
2021/10/16 10:07:13;;;;;;;2.90;1.50;;;18.30;93.00;;;;;;5096176;27;20043;-90
2021/10/16 10:09:42;;;;;;;3.08;2.03;;;18.30;93.10;;;;;;5081527;27;20543;-89
2021/10/16 10:12:11;;;;;;;5.95;2.05;;;18.30;91.50;;;;;;5098934;27;20103;-89
2021/10/16 10:14:40;;;;;;;4.03;1.67;;;18.40;92.20;;;;;;5100508;27;20054;-86
2021/10/16 10:17:09;;;;;;;2.70;1.95;;;18.50;92.50;;;;;;5084791;27;20048;-89
2021/10/16 10:19:39;;;;;;;3.65;1.80;;;18.60;91.20;;;;;;5093681;27;20192;-89
2021/10/16 10:22:16;;;;;;;3.17;2.00;;;18.70;91.90;;;;;;5079455;28;20591;-86
2021/10/16 10:24:46;;;;;;;4.55;1.85;;;18.80;91.10;;;;;;5090964;28;20323;-89
2021/10/16 10:27:17;;;;;;;3.33;1.98;;;18.90;90.60;;;;;;5098799;27;20036;-88
2021/10/16 10:29:47;;;;;;;4.53;2.10;;;19.00;90.20;;;;;;5083955;27;20146;-89
2021/10/16 10:32:17;;;;;;;5.63;2.65;;;19.10;90.40;;;;;;5099330;27;20035;-89
2021/10/16 10:34:55;;;;;;;5.70;2.95;;;19.20;89.30;;;;;;5079804;28;20047;-88
2021/10/16 10:37:30;;;;;;;3.22;2.42;;;19.20;88.80;;;;;;5098446;28;20745;-85
2021/10/16 10:39:59;;;;;;;6.50;2.78;;;19.30;88.40;;;;;;5084747;27;20122;-88
2021/10/16 10:42:45;;;;;;;2.95;2.05;;;19.20;88.30;;;;;;5096252;27;20037;-88
2021/10/16 10:45:42;;;;;;;3.28;2.60;;;19.20;88.10;;;;;;5092673;28;20043;-90
2021/10/16 10:48:13;;;;;;;3.15;2.05;;;19.30;89.10;;;;;;5077208;28;20278;-89
2021/10/16 10:50:53;;;;;;;4.97;2.00;;;19.40;90.20;;;;;;5091827;28;20140;-89
2021/10/16 10:53:41;;;;;;;4.28;2.20;;;19.50;88.90;;;;;;5098183;27;20148;-88
2021/10/16 10:56:20;;;;;;;4.85;2.72;;;19.40;87.30;;;;;;5116497;27;20063;-89
2021/10/16 10:59:01;;;;;;;2.65;2.33;;;19.40;87.50;;;;;;5090103;28;20114;-87
2021/10/16 11:01:59;;;;;;;2.60;2.05;;;19.50;87.40;;;;;;5095029;27;20043;-87
2021/10/16 11:04:55;;;;;;;2.97;2.40;;;19.50;88.10;;;;;;5113034;27;20058;-92
2021/10/16 11:07:55;;;;;;;2.88;2.13;;;19.60;87.60;;;;;;5101954;27;20039;-88
2021/10/16 11:10:25;;;;;;;3.17;2.42;;;19.60;86.80;;;;;;5104613;27;20253;-88
2021/10/16 11:12:53;;;;;;;4.70;2.75;;;19.70;87.70;;;;;;5077708;27;20094;-89
2021/10/16 11:15:22;;;;;;;3.13;2.38;;;19.80;86.50;;;;;;5118927;27;20039;-90
2021/10/16 11:17:50;;;;;;;4.40;2.20;;;19.80;86.10;;;;;;5097944;27;20558;-89
2021/10/16 11:20:27;;;;;;;4.00;2.20;;;20.00;86.00;;;;;;5112059;27;20137;-89
2021/10/16 11:22:55;;;;;;;3.53;2.20;;;20.10;85.80;;;;;;5111582;27;20028;-90
2021/10/16 11:25:29;;;;;;;6.28;2.90;;;20.00;85.60;;;;;;5096434;27;20042;-88
2021/10/16 11:28:05;;;;;;;5.07;2.65;;;20.10;85.10;;;;;;5091534;27;20741;-89
2021/10/16 11:30:35;;;;;;;3.78;2.65;;;20.30;85.30;;;;;;5087265;27;20047;-90
2021/10/16 11:33:05;;;;;;;4.45;2.05;;;20.30;85.70;;;;;;5091322;28;20043;-89
2021/10/16 11:35:33;;;;;;;4.57;3.08;;;20.30;85.80;;;;;;5098253;27;20043;-89
2021/10/16 11:38:01;;;;;;;4.05;2.67;;;20.40;84.80;;;;;;5097211;27;20314;-87
2021/10/16 11:40:33;;;;;;;5.80;2.55;;;20.40;84.50;;;;;;5095024;27;20040;-89
2021/10/16 11:43:04;;;;;;;4.45;2.60;;;20.50;84.80;;;;;;5091953;28;20512;-88
2021/10/16 11:45:35;;;;;;;3.72;2.55;;;20.60;84.90;;;;;;5108747;27;20135;-88
2021/10/16 11:48:05;;;;;;;3.60;3.05;;;20.70;84.90;;;;;;5109077;27;20039;-89
2021/10/16 11:50:35;;;;;;;4.45;2.60;;;20.80;83.90;;;;;;5091327;27;20043;-89
2021/10/16 11:53:09;;;;;;;3.25;2.20;;;20.80;83.60;;;;;;5073458;27;20039;-89
2021/10/16 11:55:40;;;;;;;4.38;2.55;;;20.90;83.30;;;;;;5074608;28;20056;-89
2021/10/16 11:58:16;;;;;;;3.38;2.15;;;21.00;82.70;;;;;;5092393;28;20576;-90
2021/10/16 12:00:46;;;;;;;2.33;2.13;;;21.00;83.20;;;;;;5075851;28;20073;-90
2021/10/16 12:03:16;;;;;;;3.20;2.38;;;21.00;83.20;;;;;;5088811;28;20083;-89
2021/10/16 12:05:46;;;;;;;3.15;2.28;;;21.10;83.70;;;;;;5092283;28;20518;-78
2021/10/16 12:08:17;;;;;;;3.47;2.40;;;21.20;83.10;;;;;;5092679;28;20052;-84
2021/10/16 12:10:52;;;;;;;3.53;2.30;;;21.20;82.50;;;;;;5088179;28;20040;-83
2021/10/16 12:13:35;;;;;;;3.50;2.30;;;21.20;82.50;;;;;;5078842;28;20075;-83
2021/10/16 12:16:13;;;;;;;4.18;2.20;;;21.30;82.20;;;;;;5068836;28;20050;-82
2021/10/16 12:18:52;;;;;;;3.92;1.73;;;21.30;82.40;;;;;;5071893;28;20058;-83
2021/10/16 12:21:31;;;;;;;3.38;1.83;;;21.50;82.00;;;;;;5090160;28;20044;-82
2021/10/16 12:24:01;;;;;;;2.33;1.88;;;21.60;81.80;;;;;;5084176;28;20040;-84
2021/10/16 12:26:33;;;;;;;5.57;1.83;;;21.50;81.40;;;;;;5085984;28;20043;-85
2021/10/16 12:29:03;;;;;;;1.77;1.45;;;21.60;81.60;;;;;;5075022;28;20365;-82
2021/10/16 12:31:43;;;;;;;3.38;2.35;;;21.60;81.70;;;;;;5081287;28;20040;-82
2021/10/16 12:34:18;;;;;;;4.05;2.03;;;21.70;80.80;;;;;;5084348;28;20051;-82
2021/10/16 12:36:52;;;;;;;3.25;2.00;;;21.90;82.00;;;;;;5090904;28;20488;-82
2021/10/16 12:39:28;;;;;;;3.25;2.15;;;21.90;81.20;;;;;;5084679;28;20054;-82
2021/10/16 12:42:13;;;;;;;4.85;1.75;;;21.80;80.70;;;;;;5093940;28;20501;-83
2021/10/16 12:44:43;;;;;;;3.72;1.55;;;21.80;81.00;;;;;;5086446;28;20052;-82
2021/10/16 12:47:12;;;;;;;3.40;1.75;;;21.80;80.30;;;;;;5082958;28;20059;-82
2021/10/16 12:49:47;;;;;;;3.03;1.65;;;21.80;81.00;;;;;;5089682;28;20581;-84
2021/10/16 12:52:27;;;;;;;2.00;1.63;;;21.90;81.40;;;;;;5076925;28;20055;-85
2021/10/16 12:54:59;;;;;;;3.83;2.10;;;21.90;81.20;;;;;;5088380;28;20505;-84
2021/10/16 12:57:29;;;;;;;5.57;4.80;;;22.10;81.40;;;;;;5091184;28;20061;-89
2021/10/16 13:00:03;;;;;;;5.18;2.60;;;22.10;80.80;;;;;;5106767;28;20043;-87
2021/10/16 13:02:34;;;;;;;2.28;1.70;;;22.20;80.90;;;;;;5091248;28;20047;-85
2021/10/16 13:05:03;;;;;;;2.63;1.60;;;22.30;81.40;;;;;;5106660;28;20113;-86
2021/10/16 13:07:31;;;;;;;2.03;1.38;;;22.30;80.90;;;;;;5105486;28;20062;-83
2021/10/16 13:10:03;;;;;;;3.53;1.38;;;22.20;81.40;;;;;;5091363;28;20031;-90